Time;durP1;ratioP1;P1;durP2;ratioP2;P2;SDS_P1;SDS_P2;PMS_P1;PMS_P2;Temp;Humidity;BMP_temperature;BMP_pressure;BME280_temperature;BME280_humidity;BME280_pressure;Samples;Min_cycle;Max_cycle;Signal;HPM_P1;HPM_P2
2024/04/05 00:00:45;;;;;;;1.85;1.60;;;;;;;;;;5079555;28;20123;-70
2024/04/05 00:03:11;;;;;;;4.38;2.00;;;12.50;99.90;;;;;;5087670;28;20043;-70
2024/04/05 00:05:37;;;;;;;5.28;2.20;;;12.40;99.90;;;;;;5079662;28;20032;-70
2024/04/05 00:08:03;;;;;;;4.18;1.73;;;12.40;99.90;;;;;;5080994;28;20039;-69
2024/04/05 00:10:29;;;;;;;4.57;1.80;;;12.40;99.90;;;;;;5079631;28;20044;-70
2024/04/05 00:13:02;;;;;;;4.50;1.63;;;12.30;99.90;;;;;;5080256;28;20040;-70
2024/04/05 00:15:28;;;;;;;5.07;1.90;;;12.40;99.90;;;;;;5079366;28;20342;-70
2024/04/05 00:17:54;;;;;;;4.57;1.92;;;;;;;;;;5079471;28;20056;-70
2024/04/05 00:20:20;;;;;;;4.88;2.15;;;12.30;99.90;;;;;;5079541;28;20050;-70
2024/04/05 00:22:46;;;;;;;3.58;1.50;;;12.30;99.90;;;;;;5079203;28;20622;-70
2024/04/05 00:25:11;;;;;;;3.58;1.60;;;12.30;99.90;;;;;;5079142;28;20075;-70
2024/04/05 00:27:37;;;;;;;4.95;1.45;;;12.30;99.90;;;;;;5079261;28;20382;-70
2024/04/05 00:30:06;;;;;;;2.55;1.33;;;12.20;99.90;;;;;;5079178;28;20107;-69
2024/04/05 00:32:32;;;;;;;3.10;1.75;;;11.80;99.90;;;;;;5079278;28;20036;-70
2024/04/05 00:34:58;;;;;;;2.88;1.50;;;12.10;99.90;;;;;;5079016;28;20110;-69
2024/04/05 00:37:24;;;;;;;2.30;1.00;;;12.10;99.90;;;;;;5087268;28;20034;-70
2024/04/05 00:39:49;;;;;;;3.25;1.42;;;12.00;99.90;;;;;;5079109;28;20028;-69
2024/04/05 00:42:15;;;;;;;4.90;1.58;;;12.00;99.90;;;;;;5079467;28;20127;-70
2024/04/05 00:44:41;;;;;;;1.65;1.45;;;12.00;99.90;;;;;;5079074;28;20228;-70
2024/04/05 00:47:08;;;;;;;2.63;1.40;;;11.90;99.90;;;;;;5079312;28;20032;-70
2024/04/05 00:49:34;;;;;;;7.07;1.48;;;11.80;99.90;;;;;;5079131;28;20044;-70
2024/04/05 00:52:00;;;;;;;2.67;1.63;;;11.80;99.90;;;;;;5079018;28;20043;-70
2024/04/05 00:54:26;;;;;;;1.80;1.38;;;11.80;99.90;;;;;;5086944;28;20236;-70
2024/04/05 00:56:54;;;;;;;5.80;1.50;;;11.80;99.90;;;;;;5082685;28;20035;-70
2024/04/05 00:59:20;;;;;;;2.85;1.40;;;11.70;99.90;;;;;;5079009;28;20354;-70
2024/04/05 01:01:46;;;;;;;2.42;1.30;;;11.60;99.90;;;;;;5078950;28;20454;-70
2024/04/05 01:04:11;;;;;;;2.15;1.20;;;11.50;99.90;;;;;;5070778;28;20033;-69
2024/04/05 01:06:37;;;;;;;1.35;1.10;;;11.50;99.90;;;;;;5082932;28;20042;-69
2024/04/05 01:09:06;;;;;;;1.58;1.10;;;11.30;99.90;;;;;;5087542;28;20414;-70
2024/04/05 01:11:32;;;;;;;3.30;0.70;;;11.30;99.90;;;;;;5086846;28;20592;-73
2024/04/05 01:13:58;;;;;;;1.30;0.85;;;11.20;99.90;;;;;;5078625;28;20033;-73
2024/04/05 01:16:24;;;;;;;0.70;0.70;;;11.10;99.90;;;;;;5078690;28;20036;-73
2024/04/05 01:18:52;;;;;;;1.23;0.88;;;11.10;99.90;;;;;;5078592;28;20032;-71
2024/04/05 01:21:20;;;;;;;1.17;1.07;;;11.00;99.90;;;;;;5078876;28;20047;-71
2024/04/05 01:23:49;;;;;;;1.87;0.93;;;11.00;99.90;;;;;;5078570;28;20289;-71
2024/04/05 01:26:15;;;;;;;3.95;1.48;;;10.90;99.90;;;;;;5082262;28;20112;-71
2024/04/05 01:28:40;;;;;;;1.98;1.30;;;10.90;99.90;;;;;;5090532;28;20335;-71
2024/04/05 01:31:06;;;;;;;2.35;1.00;;;10.90;99.90;;;;;;5082370;28;20116;-72
2024/04/05 01:33:32;;;;;;;2.72;1.15;;;10.80;99.90;;;;;;5081114;28;20032;-72
2024/04/05 01:35:57;;;;;;;3.53;1.00;;;10.80;99.90;;;;;;5082406;28;20067;-72
2024/04/05 01:38:23;;;;;;;2.78;1.50;;;10.70;99.90;;;;;;5082408;28;20028;-71
2024/04/05 01:40:49;;;;;;;2.95;1.13;;;10.70;99.90;;;;;;5086583;28;20027;-72
2024/04/05 01:43:15;;;;;;;2.80;1.35;;;10.70;99.90;;;;;;5093675;28;20037;-71
2024/04/05 01:45:42;;;;;;;3.15;0.85;;;10.60;99.90;;;;;;5090574;28;20036;-71
2024/04/05 01:48:07;;;;;;;1.23;0.77;;;10.50;99.90;;;;;;5082007;28;20386;-71
2024/04/05 01:50:33;;;;;;;0.82;0.77;;;10.50;99.90;;;;;;5082134;28;20024;-70
2024/04/05 01:52:59;;;;;;;1.85;0.77;;;10.50;99.90;;;;;;5080571;28;20043;-70
2024/04/05 01:55:24;;;;;;;0.85;0.80;;;10.40;99.90;;;;;;5080769;28;20078;-70
2024/04/05 01:57:50;;;;;;;2.95;0.60;;;10.30;99.90;;;;;;5081733;28;20047;-71
2024/04/05 02:00:16;;;;;;;0.70;0.70;;;10.30;99.90;;;;;;5081974;28;20039;-71
2024/04/05 02:02:42;;;;;;;0.55;0.50;;;10.20;99.90;;;;;;5088722;28;20377;-71
2024/04/05 02:05:08;;;;;;;0.70;0.70;;;10.00;99.90;;;;;;5096657;28;20028;-71
2024/04/05 02:07:33;;;;;;;1.85;0.77;;;10.10;99.90;;;;;;5066428;28;20074;-70
2024/04/05 02:09:59;;;;;;;0.82;0.82;;;10.10;99.90;;;;;;5081428;28;20036;-71
2024/04/05 02:12:27;;;;;;;3.13;0.93;;;10.10;99.90;;;;;;5081748;28;20040;-71
2024/04/05 02:14:53;;;;;;;0.68;0.68;;;10.00;99.90;;;;;;5089595;28;20097;-70
2024/04/05 02:17:19;;;;;;;1.02;0.95;;;9.90;99.90;;;;;;5080229;28;20036;-71
2024/04/05 02:19:45;;;;;;;0.70;0.70;;;10.00;99.90;;;;;;5089353;28;20202;-71
2024/04/05 02:22:11;;;;;;;1.95;0.73;;;9.90;99.90;;;;;;5081392;28;20035;-71
2024/04/05 02:24:37;;;;;;;0.85;0.85;;;9.90;99.90;;;;;;5079998;28;20052;-71
2024/04/05 02:27:02;;;;;;;1.08;0.90;;;10.00;99.90;;;;;;5081285;28;20465;-71
2024/04/05 02:29:28;;;;;;;0.90;0.90;;;9.70;99.90;;;;;;5081323;28;20044;-72
2024/04/05 02:31:54;;;;;;;4.40;1.10;;;9.80;99.90;;;;;;5081318;28;20044;-71
2024/04/05 02:34:21;;;;;;;4.07;0.93;;;9.80;99.90;;;;;;5079954;28;20044;-71
2024/04/05 02:36:49;;;;;;;1.15;0.90;;;9.60;99.90;;;;;;5088559;28;20100;-71
2024/04/05 02:39:15;;;;;;;2.50;1.25;;;9.90;99.90;;;;;;5081441;28;20132;-71
2024/04/05 02:41:40;;;;;;;0.60;0.60;;;9.80;99.90;;;;;;5081298;28;20032;-71
2024/04/05 02:44:06;;;;;;;1.58;1.30;;;9.80;99.90;;;;;;5081024;28;20046;-71
2024/04/05 02:46:32;;;;;;;1.30;1.13;;;9.80;99.90;;;;;;5081050;28;20028;-70
2024/04/05 02:48:57;;;;;;;3.60;1.30;;;9.90;99.90;;;;;;5080820;28;20040;-69
2024/04/05 02:51:23;;;;;;;1.85;1.15;;;9.70;99.90;;;;;;5080937;28;20344;-73
2024/04/05 02:53:49;;;;;;;2.42;1.63;;;9.70;99.90;;;;;;5088830;28;20048;-73
2024/04/05 02:56:16;;;;;;;1.98;1.45;;;9.50;99.90;;;;;;5080813;28;20021;-73
2024/04/05 02:58:42;;;;;;;2.35;1.50;;;9.50;99.90;;;;;;5080685;28;20036;-72
2024/04/05 03:01:08;;;;;;;1.30;1.20;;;9.40;99.90;;;;;;5079377;28;20124;-74
2024/04/05 03:03:33;;;;;;;2.08;1.38;;;9.40;99.90;;;;;;5080967;28;20037;-75
2024/04/05 03:05:59;;;;;;;1.92;1.00;;;9.50;99.90;;;;;;5079267;28;20037;-74
2024/04/05 03:08:25;;;;;;;2.25;1.45;;;9.10;99.90;;;;;;5080679;28;20094;-71
2024/04/05 03:10:50;;;;;;;2.88;1.17;;;9.30;99.90;;;;;;5088591;28;20039;-69
2024/04/05 03:13:16;;;;;;;1.70;1.20;;;;;;;;;;5080770;28;20299;-71
2024/04/05 03:15:42;;;;;;;1.25;1.15;;;9.20;99.90;;;;;;5080496;28;20040;-71
2024/04/05 03:18:08;;;;;;;1.55;1.00;;;9.30;99.90;;;;;;5080211;28;20069;-71
2024/04/05 03:20:33;;;;;;;1.27;1.10;;;9.20;99.90;;;;;;5080404;28;20090;-71
2024/04/05 03:22:59;;;;;;;2.05;1.00;;;9.30;99.90;;;;;;5080166;28;20032;-70
2024/04/05 03:25:25;;;;;;;1.70;1.05;;;9.30;99.90;;;;;;5065406;28;20368;-70
2024/04/05 03:27:50;;;;;;;2.90;1.02;;;9.30;99.90;;;;;;5086020;28;20320;-71
2024/04/05 03:30:16;;;;;;;2.55;1.02;;;9.30;99.90;;;;;;5080108;28;20043;-70
2024/04/05 03:32:42;;;;;;;3.83;1.00;;;9.20;99.90;;;;;;5080070;28;20028;-72
2024/04/05 03:35:08;;;;;;;2.22;0.93;;;9.20;99.90;;;;;;5079805;28;20067;-71
2024/04/05 03:37:35;;;;;;;1.67;1.20;;;9.20;99.90;;;;;;5080048;28;20040;-72
2024/04/05 03:40:01;;;;;;;1.77;1.17;;;9.30;99.90;;;;;;5079903;28;20032;-72
2024/04/05 03:42:26;;;;;;;1.23;1.13;;;9.30;99.90;;;;;;5079882;28;20040;-72
2024/04/05 03:44:52;;;;;;;3.95;1.13;;;9.30;99.90;;;;;;5086810;28;20056;-72
2024/04/05 03:47:18;;;;;;;4.60;1.33;;;9.30;99.90;;;;;;5078457;28;20107;-71
2024/04/05 03:49:44;;;;;;;2.88;1.45;;;9.30;99.90;;;;;;5079888;28;20032;-72
2024/04/05 03:52:10;;;;;;;2.53;1.38;;;9.30;99.90;;;;;;5079715;28;20343;-71
2024/04/05 03:54:36;;;;;;;1.70;1.60;;;9.30;99.90;;;;;;5079659;28;20033;-72
2024/04/05 03:57:02;;;;;;;5.05;1.60;;;9.30;99.90;;;;;;5085339;28;20359;-72
2024/04/05 03:59:28;;;;;;;2.15;1.63;;;9.40;99.90;;;;;;5078982;28;20094;-72
2024/04/05 04:01:54;;;;;;;2.65;1.33;;;9.40;99.90;;;;;;5087111;28;20048;-72
2024/04/05 04:04:21;;;;;;;1.60;1.13;;;9.40;99.90;;;;;;5078862;28;20036;-72
2024/04/05 04:06:49;;;;;;;2.97;1.98;;;9.40;99.90;;;;;;5079001;28;20103;-72
2024/04/05 04:09:18;;;;;;;2.85;1.23;;;9.40;99.90;;;;;;5079518;28;20028;-71
2024/04/05 04:11:44;;;;;;;1.63;1.25;;;9.40;99.90;;;;;;5079510;28;20032;-71
2024/04/05 04:14:13;;;;;;;3.35;1.15;;;9.30;99.90;;;;;;5079382;28;20043;-70
2024/04/05 04:16:40;;;;;;;2.05;1.30;;;9.30;99.90;;;;;;5079241;28;20103;-70
2024/04/05 04:19:07;;;;;;;3.22;1.30;;;9.30;99.90;;;;;;5085181;28;20040;-69
2024/04/05 04:21:33;;;;;;;1.38;1.10;;;9.30;99.90;;;;;;5079149;28;20386;-70
2024/04/05 04:23:59;;;;;;;2.10;1.30;;;9.30;99.90;;;;;;5077746;28;20334;-69
2024/04/05 04:26:24;;;;;;;1.52;1.30;;;9.30;99.90;;;;;;5079206;28;20047;-71
2024/04/05 04:28:52;;;;;;;3.00;1.02;;;9.30;99.90;;;;;;5079166;28;20076;-70
2024/04/05 04:31:22;;;;;;;2.03;1.40;;;9.30;99.90;;;;;;5077808;28;20281;-70
2024/04/05 04:33:49;;;;;;;1.10;1.00;;;9.30;99.90;;;;;;5079242;28;20047;-70
2024/04/05 04:36:15;;;;;;;3.80;1.27;;;9.40;99.90;;;;;;5079008;28;20396;-70
2024/04/05 04:38:41;;;;;;;4.07;1.17;;;9.50;99.90;;;;;;5082186;28;20062;-70
2024/04/05 04:41:07;;;;;;;1.13;1.02;;;9.40;99.90;;;;;;5081341;28;20126;-70
2024/04/05 04:43:33;;;;;;;2.00;1.10;;;9.50;99.90;;;;;;5085583;28;20028;-70
2024/04/05 04:45:59;;;;;;;3.53;1.25;;;9.50;99.90;;;;;;5078803;28;20043;-70
2024/04/05 04:48:29;;;;;;;2.33;1.38;;;;;;;;;;5077507;28;20348;-69
2024/04/05 04:50:54;;;;;;;2.88;1.25;;;9.70;99.90;;;;;;5079119;28;20360;-71
2024/04/05 04:53:20;;;;;;;1.17;0.95;;;9.70;99.90;;;;;;5086141;28;20032;-71
2024/04/05 04:55:46;;;;;;;1.67;1.20;;;9.70;99.90;;;;;;5078760;28;20036;-71
2024/04/05 04:58:16;;;;;;;4.53;1.20;;;9.80;99.90;;;;;;5070723;28;20043;-71
2024/04/05 05:00:45;;;;;;;1.52;0.85;;;9.80;99.90;;;;;;5081693;28;20115;-72
2024/04/05 05:03:11;;;;;;;;;;;9.90;99.90;;;;;;5083341;28;20028;-71
2024/04/05 05:05:40;;;;;;;2.40;0.82;;;9.90;99.90;;;;;;5083070;28;19916;-72
2024/04/05 05:08:07;;;;;;;;;;;10.00;99.90;;;;;;5085991;28;20585;-72
2024/04/05 05:10:33;;;;;;;1.00;0.90;;;10.00;99.90;;;;;;5088420;28;19944;-71
2024/04/05 05:12:59;;;;;;;1.80;1.00;;;10.00;99.90;;;;;;5082659;28;20040;-71
2024/04/05 05:15:28;;;;;;;0.77;0.77;;;10.10;99.90;;;;;;5081390;28;20187;-71
2024/04/05 05:17:53;;;;;;;1.67;0.95;;;10.10;99.90;;;;;;5082574;28;20291;-71
2024/04/05 05:20:22;;;;;;;3.05;1.20;;;10.10;99.90;;;;;;5082645;28;20037;-71
2024/04/05 05:22:48;;;;;;;1.38;1.10;;;10.10;99.90;;;;;;5082514;28;20343;-72
2024/04/05 05:25:15;;;;;;;3.42;1.20;;;10.10;99.90;;;;;;5086118;28;20157;-71
2024/04/05 05:27:41;;;;;;;2.63;1.25;;;10.10;99.90;;;;;;5086934;28;20037;-71
2024/04/05 05:30:07;;;;;;;0.95;0.95;;;10.10;99.90;;;;;;5082487;28;20032;-71
2024/04/05 05:32:32;;;;;;;5.15;1.55;;;10.30;99.90;;;;;;5081066;28;20058;-71
2024/04/05 05:34:58;;;;;;;1.63;1.20;;;10.10;99.90;;;;;;5095733;28;20442;-71
2024/04/05 05:37:24;;;;;;;2.30;2.05;;;10.20;99.90;;;;;;5082259;28;20378;-71
2024/04/05 05:39:49;;;;;;;1.65;1.55;;;10.10;99.90;;;;;;5082046;28;20032;-71
2024/04/05 05:42:15;;;;;;;2.08;1.45;;;10.10;99.90;;;;;;5084899;28;20036;-71
2024/04/05 05:44:41;;;;;;;2.88;1.50;;;10.10;99.90;;;;;;5086599;28;20036;-71
2024/04/05 05:47:06;;;;;;;1.40;1.30;;;10.20;99.90;;;;;;5081836;28;20418;-71
2024/04/05 05:49:32;;;;;;;1.42;1.30;;;10.20;99.90;;;;;;5081967;28;20032;-71
2024/04/05 05:51:58;;;;;;;1.50;1.20;;;10.30;99.90;;;;;;5081939;28;20070;-71
2024/04/05 05:54:23;;;;;;;1.83;1.25;;;10.30;99.90;;;;;;5081837;28;20032;-72
2024/04/05 05:56:53;;;;;;;3.40;1.30;;;10.40;99.90;;;;;;5090136;28;20099;-71
2024/04/05 05:59:19;;;;;;;5.93;1.38;;;10.40;99.90;;;;;;5086290;28;20046;-70
2024/04/05 06:01:44;;;;;;;2.60;1.20;;;10.50;99.90;;;;;;5085917;28;20379;-71
2024/04/05 06:04:10;;;;;;;4.70;1.45;;;10.80;99.90;;;;;;5081673;28;20028;-71
2024/04/05 06:06:37;;;;;;;3.03;1.27;;;10.90;99.90;;;;;;5081607;28;20040;-72
2024/04/05 06:09:04;;;;;;;4.07;1.27;;;10.80;99.90;;;;;;5081591;28;20032;-71
2024/04/05 06:11:31;;;;;;;1.65;1.10;;;11.00;99.90;;;;;;5079162;28;20070;-72
2024/04/05 06:13:56;;;;;;;1.83;1.40;;;11.10;99.90;;;;;;5081303;28;20317;-71
2024/04/05 06:16:22;;;;;;;4.15;1.08;;;11.10;99.90;;;;;;5086469;28;20087;-71
2024/04/05 06:18:48;;;;;;;2.80;1.30;;;11.20;99.90;;;;;;5083960;28;20324;-71
2024/04/05 06:21:13;;;;;;;5.60;1.35;;;11.30;99.90;;;;;;5081634;28;20029;-71
2024/04/05 06:23:39;;;;;;;5.82;1.67;;;11.50;99.90;;;;;;5081109;28;20244;-71
2024/04/05 06:26:05;;;;;;;7.28;1.80;;;11.40;99.90;;;;;;5081136;28;20198;-71
2024/04/05 06:28:31;;;;;;;6.00;1.20;;;11.60;99.90;;;;;;5081383;28;20382;-71
2024/04/05 06:30:57;;;;;;;3.13;1.10;;;11.60;99.90;;;;;;5081075;28;20036;-71
2024/04/05 06:33:22;;;;;;;3.55;1.30;;;12.30;99.90;;;;;;5086573;28;20035;-72
2024/04/05 06:36:01;;;;;;;3.97;1.25;;;11.90;99.90;;;;;;5084417;28;20248;-70
2024/04/05 06:38:27;;;;;;;5.72;1.48;;;12.00;99.90;;;;;;5079978;28;20247;-70
2024/04/05 06:40:57;;;;;;;6.78;1.40;;;12.10;99.90;;;;;;5081082;28;20040;-69
2024/04/05 06:43:24;;;;;;;17.58;2.30;;;12.20;99.90;;;;;;5081119;28;20032;-70
2024/04/05 06:46:07;;;;;;;2.38;1.10;;;12.40;99.90;;;;;;5080833;28;20043;-70
2024/04/05 06:48:33;;;;;;;5.07;1.50;;;12.50;99.90;;;;;;5081009;28;20319;-70
2024/04/05 06:50:59;;;;;;;2.30;1.30;;;12.60;99.90;;;;;;5089559;28;20100;-69
2024/04/05 06:53:27;;;;;;;3.33;1.10;;;12.70;99.90;;;;;;5081039;28;20040;-69
2024/04/05 06:55:53;;;;;;;2.55;1.95;;;12.80;99.90;;;;;;5080560;28;20113;-69
2024/04/05 06:58:19;;;;;;;2.53;1.40;;;12.90;99.90;;;;;;5084009;28;20044;-70
2024/04/05 07:00:46;;;;;;;2.22;1.05;;;13.40;99.90;;;;;;5080485;28;20071;-69
2024/04/05 07:03:12;;;;;;;4.80;1.60;;;13.40;99.90;;;;;;5080411;28;20043;-68
2024/04/05 07:05:39;;;;;;;1.50;1.23;;;13.70;99.90;;;;;;5084258;28;20335;-68
2024/04/05 07:08:10;;;;;;;5.05;1.60;;;13.90;99.90;;;;;;5088948;28;20063;-68
2024/04/05 07:10:36;;;;;;;2.67;1.48;;;14.00;99.90;;;;;;5080461;28;20028;-68
2024/04/05 07:13:03;;;;;;;1.65;1.00;;;14.10;99.90;;;;;;5080334;28;20036;-69
2024/04/05 07:15:29;;;;;;;2.03;1.50;;;14.30;99.90;;;;;;5080441;28;20039;-68
2024/04/05 07:17:56;;;;;;;3.20;1.10;;;14.10;99.90;;;;;;5080484;28;20033;-68
2024/04/05 07:20:25;;;;;;;2.45;1.30;;;14.60;99.90;;;;;;5080508;28;20069;-67
2024/04/05 07:22:52;;;;;;;1.20;1.10;;;14.50;99.90;;;;;;5079977;28;20343;-67
2024/04/05 07:25:23;;;;;;;3.17;1.20;;;14.50;99.90;;;;;;5088627;28;20434;-67
2024/04/05 07:27:54;;;;;;;3.80;1.23;;;14.70;99.90;;;;;;5082433;28;20046;-67
2024/04/05 07:30:21;;;;;;;1.90;1.25;;;14.00;99.90;;;;;;5080338;28;20107;-68
2024/04/05 07:32:48;;;;;;;4.10;1.42;;;14.70;99.90;;;;;;5079990;28;20046;-68
2024/04/05 07:35:14;;;;;;;2.22;1.05;;;15.10;99.90;;;;;;5088289;28;20084;-67
2024/04/05 07:37:40;;;;;;;3.15;1.13;;;15.10;99.90;;;;;;5079846;28;20040;-67
2024/04/05 07:40:06;;;;;;;2.50;1.38;;;15.30;99.90;;;;;;5081236;28;20047;-67
2024/04/05 07:42:32;;;;;;;1.42;1.00;;;15.50;99.90;;;;;;5089624;28;20071;-68
2024/04/05 07:44:59;;;;;;;1.35;0.90;;;15.60;99.90;;;;;;5080379;28;20036;-68
2024/04/05 07:47:25;;;;;;;2.72;0.98;;;15.70;99.90;;;;;;5079431;28;20037;-68
2024/04/05 07:49:53;;;;;;;4.45;1.13;;;15.90;99.90;;;;;;5079515;28;20043;-69
2024/04/05 07:52:22;;;;;;;1.63;0.90;;;15.90;99.90;;;;;;5085828;28;20252;-68
2024/04/05 07:54:49;;;;;;;1.95;0.93;;;16.20;99.90;;;;;;5079436;28;20043;-68
2024/04/05 07:57:14;;;;;;;8.80;0.90;;;16.30;99.90;;;;;;5079510;28;20036;-68
2024/04/05 07:59:46;;;;;;;3.10;1.35;;;16.30;98.40;;;;;;5086834;28;20040;-73
2024/04/05 08:02:12;;;;;;;2.08;1.05;;;16.40;98.00;;;;;;5078027;28;20040;-70
2024/04/05 08:04:38;;;;;;;3.60;1.25;;;16.60;96.30;;;;;;5079298;28;20040;-69
2024/04/05 08:07:04;;;;;;;2.75;1.02;;;16.70;94.50;;;;;;5086258;28;20042;-68
2024/04/05 08:09:29;;;;;;;1.73;0.98;;;16.70;92.60;;;;;;5079601;28;20036;-69
2024/04/05 08:11:55;;;;;;;2.33;0.98;;;16.80;92.00;;;;;;5079219;28;20036;-68
2024/04/05 08:14:21;;;;;;;1.92;0.98;;;16.90;88.70;;;;;;5079198;28;20101;-68
2024/04/05 08:16:48;;;;;;;2.58;1.23;;;16.90;89.70;;;;;;5087895;28;20028;-69
2024/04/05 08:19:14;;;;;;;3.42;1.10;;;17.00;90.20;;;;;;5082254;28;20029;-69
2024/04/05 08:21:40;;;;;;;2.47;1.10;;;17.20;89.20;;;;;;5079157;28;20038;-68
2024/04/05 08:24:06;;;;;;;2.83;1.05;;;17.20;88.80;;;;;;5082766;28;20252;-70
2024/04/05 08:26:33;;;;;;;3.00;1.10;;;17.40;87.30;;;;;;5084896;28;20043;-69
2024/04/05 08:28:59;;;;;;;5.15;1.58;;;17.50;87.70;;;;;;5079053;28;20059;-69
2024/04/05 08:31:25;;;;;;;1.85;1.05;;;17.50;86.40;;;;;;5078561;28;20036;-70
2024/04/05 08:33:51;;;;;;;2.10;1.00;;;17.60;84.70;;;;;;5086681;28;20098;-70
2024/04/05 08:36:17;;;;;;;2.28;1.20;;;17.50;83.80;;;;;;5078877;28;20082;-70
2024/04/05 08:38:43;;;;;;;1.75;0.93;;;17.60;83.80;;;;;;5079002;28;20040;-70
2024/04/05 08:41:11;;;;;;;3.15;1.23;;;17.70;81.60;;;;;;5079114;28;20254;-70
2024/04/05 08:43:42;;;;;;;2.72;1.00;;;17.70;81.60;;;;;;5079307;28;20037;-70
2024/04/05 08:46:08;;;;;;;2.45;0.93;;;17.90;96.60;;;;;;5079090;28;20056;-70
2024/04/05 08:48:35;;;;;;;0.70;0.70;;;17.90;79.90;;;;;;5079222;28;20078;-70
2024/04/05 08:51:02;;;;;;;5.40;1.00;;;17.90;79.00;;;;;;5087730;28;20108;-70
2024/04/05 08:53:29;;;;;;;2.92;1.25;;;17.90;78.70;;;;;;5079032;28;20032;-70
2024/04/05 08:55:58;;;;;;;2.30;0.93;;;18.00;78.40;;;;;;5078752;28;20033;-70
2024/04/05 08:58:25;;;;;;;1.08;0.85;;;18.10;78.50;;;;;;5082879;28;20047;-70
2024/04/05 09:00:51;;;;;;;1.85;1.08;;;18.10;77.10;;;;;;5078855;28;20048;-71
2024/04/05 09:03:17;;;;;;;4.07;1.13;;;18.40;78.00;;;;;;5088109;28;20024;-70
2024/04/05 09:05:43;;;;;;;5.80;1.33;;;18.40;95.70;;;;;;5078865;28;20064;-70
2024/04/05 09:08:09;;;;;;;1.73;0.90;;;18.50;76.10;;;;;;5087395;28;20028;-70
2024/04/05 09:10:35;;;;;;;2.70;0.75;;;18.50;74.90;;;;;;5078949;28;20104;-70
2024/04/05 09:13:04;;;;;;;1.38;0.60;;;18.80;73.50;;;;;;5078823;28;20086;-68
2024/04/05 09:15:31;;;;;;;1.60;0.73;;;18.70;72.40;;;;;;5078960;28;20159;-69
2024/04/05 09:17:58;;;;;;;4.38;1.27;;;18.70;73.90;;;;;;5078562;28;20096;-68
2024/04/05 09:20:29;;;;;;;5.13;1.05;;;18.80;73.90;;;;;;5080298;28;20032;-69
2024/04/05 09:23:02;;;;;;;1.77;0.82;;;19.00;73.60;;;;;;5079793;28;20080;-69
2024/04/05 09:25:35;;;;;;;1.75;0.68;;;19.10;72.50;;;;;;5084848;28;20048;-68
2024/04/05 09:28:13;;;;;;;0.75;0.40;;;19.20;70.40;;;;;;5078592;28;20044;-69
2024/04/05 09:30:39;;;;;;;6.07;1.75;;;19.30;68.90;;;;;;5078797;28;20063;-68
2024/04/05 09:33:05;;;;;;;1.15;0.73;;;19.30;69.00;;;;;;5077295;28;20036;-69
2024/04/05 09:35:32;;;;;;;2.17;0.98;;;19.20;69.40;;;;;;5078652;28;20047;-69
2024/04/05 09:38:03;;;;;;;4.22;0.88;;;19.20;69.70;;;;;;5078769;28;20036;-69
2024/04/05 09:40:35;;;;;;;4.95;0.80;;;19.30;70.40;;;;;;5084982;28;20485;-69
2024/04/05 09:43:03;;;;;;;2.47;0.90;;;19.30;69.90;;;;;;5080432;28;20048;-69
2024/04/05 09:45:30;;;;;;;;;;;19.40;67.50;;;;;;5079681;28;20037;-69
2024/04/05 09:47:57;;;;;;;2.00;0.80;;;19.40;66.20;;;;;;5080661;28;19916;-68
2024/04/05 09:50:22;;;;;;;0.90;0.70;;;19.40;67.00;;;;;;5081091;28;20035;-69
2024/04/05 09:52:52;;;;;;;1.85;0.68;;;19.50;67.10;;;;;;5080673;28;20036;-69
2024/04/05 09:55:29;;;;;;;0.73;0.52;;;19.50;66.70;;;;;;5081427;28;20030;-69
2024/04/05 09:57:55;;;;;;;1.65;0.95;;;19.40;66.40;;;;;;5090680;28;20032;-69
2024/04/05 10:00:27;;;;;;;1.85;0.60;;;19.50;66.30;;;;;;5082020;28;20509;-69
2024/04/05 10:02:55;;;;;;;1.38;0.70;;;19.60;65.20;;;;;;5081881;28;20059;-69
2024/04/05 10:05:25;;;;;;;2.08;1.10;;;19.70;64.90;;;;;;5081947;28;20328;-69
2024/04/05 10:07:52;;;;;;;2.15;1.02;;;19.70;64.70;;;;;;5081956;28;20040;-69
2024/04/05 10:10:33;;;;;;;1.90;0.63;;;19.80;64.30;;;;;;5081859;28;20054;-69
2024/04/05 10:13:23;;;;;;;2.90;0.88;;;20.20;63.90;;;;;;5081644;28;20040;-69
2024/04/05 10:15:58;;;;;;;5.93;1.15;;;20.20;64.50;;;;;;5090432;28;20197;-69
2024/04/05 10:18:37;;;;;;;3.28;0.50;;;20.40;64.20;;;;;;5081591;28;20036;-69
2024/04/05 10:21:11;;;;;;;1.60;0.70;;;20.50;63.30;;;;;;5081579;28;20095;-69
2024/04/05 10:23:38;;;;;;;3.50;1.35;;;20.40;63.50;;;;;;5081539;28;20355;-69
2024/04/05 10:26:11;;;;;;;3.53;0.80;;;20.20;63.20;;;;;;5081492;28;20488;-69
2024/04/05 10:28:37;;;;;;;2.58;0.60;;;20.20;62.70;;;;;;5081619;28;20078;-69
2024/04/05 10:31:05;;;;;;;2.50;1.20;;;20.20;62.40;;;;;;5083953;28;20363;-69
2024/04/05 10:33:31;;;;;;;1.05;0.85;;;20.40;62.90;;;;;;5087322;28;20025;-69
2024/04/05 10:35:59;;;;;;;2.40;0.93;;;20.40;62.60;;;;;;5081109;28;20367;-69
2024/04/05 10:38:27;;;;;;;0.50;0.50;;;20.30;62.20;;;;;;5089563;28;20036;-69
2024/04/05 10:41:04;;;;;;;1.00;0.43;;;20.40;62.20;;;;;;5081206;28;20113;-69
2024/04/05 10:43:29;;;;;;;2.33;1.10;;;20.50;61.40;;;;;;5081234;28;20035;-69
2024/04/05 10:45:57;;;;;;;3.10;0.88;;;20.70;61.90;;;;;;5081008;28;20060;-69
2024/04/05 10:48:23;;;;;;;6.37;0.80;;;20.80;60.80;;;;;;5097072;28;20028;-67
2024/04/05 10:50:53;;;;;;;2.00;0.73;;;20.70;60.50;;;;;;5084483;28;20040;-68
2024/04/05 10:53:20;;;;;;;1.77;0.55;;;20.70;60.80;;;;;;5081190;28;20082;-68
2024/04/05 10:55:47;;;;;;;3.40;1.08;;;20.70;59.60;;;;;;5081104;28;20103;-68
2024/04/05 10:58:14;;;;;;;2.40;0.90;;;20.80;58.80;;;;;;5080154;28;20058;-68
2024/04/05 11:00:40;;;;;;;3.40;0.73;;;20.90;57.70;;;;;;5079582;28;20032;-68
2024/04/05 11:03:08;;;;;;;3.38;0.77;;;20.90;57.10;;;;;;5080691;28;20032;-67
2024/04/05 11:05:34;;;;;;;1.38;0.70;;;20.90;56.40;;;;;;5087775;28;20066;-68
2024/04/05 11:08:06;;;;;;;1.73;0.70;;;21.00;74.80;;;;;;5082348;28;20047;-68
2024/04/05 11:10:33;;;;;;;1.52;0.57;;;20.90;57.80;;;;;;5080754;28;20044;-68
2024/04/05 11:13:00;;;;;;;4.05;0.57;;;21.00;55.60;;;;;;5080538;28;20032;-68
2024/04/05 11:15:29;;;;;;;0.55;0.55;;;21.00;56.30;;;;;;5080557;28;20356;-68
2024/04/05 11:18:01;;;;;;;3.10;0.60;;;21.00;56.80;;;;;;5088341;28;20130;-68
2024/04/05 11:20:29;;;;;;;2.28;0.63;;;20.90;55.90;;;;;;5080503;28;20036;-68
2024/04/05 11:23:02;;;;;;;1.40;0.70;;;21.00;56.30;;;;;;5089177;28;20035;-68
2024/04/05 11:25:28;;;;;;;1.67;0.60;;;21.10;56.50;;;;;;5080151;28;20032;-68
2024/04/05 11:27:54;;;;;;;0.90;0.57;;;21.30;56.30;;;;;;5079041;28;20040;-68
2024/04/05 11:30:20;;;;;;;3.55;0.93;;;21.50;56.90;;;;;;5080309;28;20017;-68
2024/04/05 11:32:45;;;;;;;2.65;1.00;;;21.50;55.40;;;;;;5080500;28;20056;-68
2024/04/05 11:35:14;;;;;;;2.63;0.70;;;21.80;55.50;;;;;;5080042;28;20036;-68
2024/04/05 11:37:47;;;;;;;3.30;0.65;;;21.80;54.30;;;;;;5080414;28;20036;-68
2024/04/05 11:40:13;;;;;;;3.13;0.90;;;21.90;55.10;;;;;;5088936;28;20035;-67
2024/04/05 11:42:40;;;;;;;3.10;0.80;;;22.00;55.00;;;;;;5080240;28;20055;-68
2024/04/05 11:45:07;;;;;;;1.33;0.50;;;21.90;74.70;;;;;;5079789;28;20027;-67
2024/04/05 11:47:33;;;;;;;2.60;0.70;;;21.80;54.50;;;;;;5081497;28;20051;-68
2024/04/05 11:50:04;;;;;;;3.10;0.75;;;21.60;53.60;;;;;;5080178;28;20036;-68
2024/04/05 11:52:31;;;;;;;2.38;0.57;;;21.60;54.80;;;;;;5079881;28;20028;-67
2024/04/05 11:54:58;;;;;;;3.03;0.80;;;21.70;54.70;;;;;;5079753;28;20109;-68
2024/04/05 11:57:24;;;;;;;2.92;0.90;;;22.00;53.90;;;;;;5088614;28;20105;-68
2024/04/05 11:59:49;;;;;;;2.78;0.85;;;22.10;53.40;;;;;;5079635;28;20070;-68
2024/04/05 12:02:15;;;;;;;4.35;1.20;;;22.20;54.00;;;;;;5079852;28;20052;-67
2024/04/05 12:04:41;;;;;;;1.05;0.60;;;22.30;54.30;;;;;;5079501;28;20040;-67
2024/04/05 12:07:09;;;;;;;2.25;0.75;;;22.40;54.30;;;;;;5079633;28;20051;-67
2024/04/05 12:09:38;;;;;;;2.60;0.93;;;22.60;53.50;;;;;;5078647;28;20047;-68
2024/04/05 12:12:04;;;;;;;1.98;0.88;;;22.50;53.90;;;;;;5079633;28;20068;-67
2024/04/05 12:14:33;;;;;;;4.68;1.08;;;21.50;53.10;;;;;;5087250;28;20032;-68
2024/04/05 12:17:00;;;;;;;;;;;22.70;54.40;;;;;;5079716;28;20047;-68
2024/04/05 12:19:25;;;;;;;3.67;1.13;;;22.80;53.60;;;;;;5078311;28;19983;-67
2024/04/05 12:21:51;;;;;;;3.90;0.85;;;22.90;53.30;;;;;;5079447;28;20041;-68
2024/04/05 12:24:17;;;;;;;1.38;0.60;;;22.90;53.10;;;;;;5079504;28;20086;-68
2024/04/05 12:26:42;;;;;;;2.65;1.08;;;23.10;52.90;;;;;;5079370;28;20666;-68
2024/04/05 12:29:08;;;;;;;4.82;0.90;;;23.10;52.70;;;;;;5079273;28;20060;-68
2024/04/05 12:31:34;;;;;;;7.43;1.20;;;23.80;69.90;;;;;;5088220;28;20036;-68
2024/04/05 12:34:00;;;;;;;2.95;1.10;;;24.10;65.70;;;;;;5079187;28;20251;-68
2024/04/05 12:36:26;;;;;;;4.88;0.93;;;24.00;50.10;;;;;;5077862;28;20044;-68
2024/04/05 12:38:56;;;;;;;2.00;0.80;;;24.10;50.30;;;;;;5079063;28;20097;-67
2024/04/05 12:41:25;;;;;;;3.80;0.98;;;24.10;49.60;;;;;;5079146;28;20023;-68
2024/04/05 12:43:52;;;;;;;1.38;0.73;;;24.00;49.90;;;;;;5079185;28;20083;-66
2024/04/05 12:46:18;;;;;;;3.08;0.80;;;24.10;50.00;;;;;;5079171;28;20035;-66
2024/04/05 12:48:45;;;;;;;4.38;0.80;;;24.00;50.00;;;;;;5088191;28;20044;-66